Time,TemperatureF,DewpointF,PressureIn,WindDirection,WindDirectionDegrees,WindSpeedMPH,WindSpeedGustMPH,Humidity,HourlyPrecipIn,Conditions,Clouds,dailyrainin,SoftwareType,DateUTC
2013-04-17 00:00:00,55.4,50.0,30.06,South,190,1.0,7.0,82,0.00,,,0.00,meteohub,2013-04-17 04:00:00,
2013-04-17 00:03:00,55.6,50.2,30.06,West,269,3.0,7.0,82,0.00,,,0.00,meteohub,2013-04-17 04:03:00,
2013-04-17 00:08:00,55.6,50.2,30.06,SW,225,1.0,7.0,82,0.00,,,0.00,meteohub,2013-04-17 04:08:00,
2013-04-17 00:13:00,55.8,50.4,30.07,South,191,1.0,7.0,82,0.00,,,0.00,meteohub,2013-04-17 04:13:00,
2013-04-17 00:18:00,55.8,50.0,30.06,West,281,1.0,7.0,81,0.00,,,0.00,meteohub,2013-04-17 04:18:00,
2013-04-17 00:23:00,55.8,50.4,30.06,West,262,1.0,6.0,82,0.00,,,0.00,meteohub,2013-04-17 04:23:00,
2013-04-17 00:28:00,55.8,50.0,30.06,SSW,202,3.0,6.0,81,0.00,,,0.00,meteohub,2013-04-17 04:28:00,
2013-04-17 00:33:00,55.8,50.4,30.07,WSW,254,1.0,6.0,82,0.00,,,0.00,meteohub,2013-04-17 04:33:00,
2013-04-17 00:38:00,55.8,50.4,30.07,WSW,256,1.0,6.0,82,0.00,,,0.00,meteohub,2013-04-17 04:38:00,
2013-04-17 00:43:00,55.6,50.5,30.07,West,261,3.0,7.0,83,0.00,,,0.00,meteohub,2013-04-17 04:43:00,
2013-04-17 00:48:00,55.6,50.5,30.06,WNW,288,1.0,7.0,83,0.00,,,0.00,meteohub,2013-04-17 04:48:00,
2013-04-17 00:53:00,55.6,50.5,30.06,West,263,1.0,5.0,83,0.00,,,0.00,meteohub,2013-04-17 04:53:00,
2013-04-17 00:58:00,55.6,50.5,30.06,West,259,1.0,10.0,83,0.00,,,0.00,meteohub,2013-04-17 04:58:00,
2013-04-17 01:03:00,55.4,50.4,30.06,West,268,5.0,10.0,83,0.00,,,0.00,meteohub,2013-04-17 05:03:00,
2013-04-17 01:08:00,55.6,50.5,30.06,WNW,287,1.0,7.0,83,0.00,,,0.00,meteohub,2013-04-17 05:08:00,
2013-04-17 01:13:00,55.6,50.5,30.07,West,265,2.0,7.0,83,0.00,,,0.00,meteohub,2013-04-17 05:13:00,
2013-04-17 01:18:00,55.6,50.5,30.07,WNW,299,2.0,7.0,83,0.00,,,0.00,meteohub,2013-04-17 05:18:00,
2013-04-17 01:23:00,55.6,50.5,30.08,WNW,297,3.0,5.0,83,0.00,,,0.00,meteohub,2013-04-17 05:23:00,
2013-04-17 01:28:00,55.6,50.5,30.08,WNW,294,2.0,6.0,83,0.00,,,0.00,meteohub,2013-04-17 05:28:00,
2013-04-17 01:33:00,55.6,50.9,30.08,NW,305,1.0,7.0,84,0.00,,,0.00,meteohub,2013-04-17 05:33:00,
2013-04-17 01:38:00,55.2,51.1,30.08,WSW,258,4.0,7.0,86,0.00,,,0.00,meteohub,2013-04-17 05:38:00,
2013-04-17 01:43:00,54.9,51.1,30.07,WNW,288,1.0,7.0,87,0.00,,,0.00,meteohub,2013-04-17 05:43:00,
2013-04-17 01:48:00,54.3,51.1,30.07,West,267,1.0,7.0,89,0.00,,,0.00,meteohub,2013-04-17 05:48:00,
2013-04-17 01:53:00,54.1,51.3,30.07,West,267,0.0,7.0,90,0.00,,,0.00,meteohub,2013-04-17 05:53:00,
2013-04-17 01:58:00,54.0,51.1,30.07,WNW,293,2.0,4.0,90,0.00,,,0.00,meteohub,2013-04-17 05:58:00,
2013-04-17 02:03:00,54.0,51.4,30.07,WNW,295,1.0,3.0,91,0.00,,,0.00,meteohub,2013-04-17 06:03:00,
2013-04-17 02:08:00,54.0,51.4,30.07,WNW,293,2.0,4.0,91,0.00,,,0.00,meteohub,2013-04-17 06:08:00,
2013-04-17 02:13:00,54.0,51.4,30.08,WNW,285,2.0,4.0,91,0.00,,,0.00,meteohub,2013-04-17 06:13:00,
2013-04-17 02:18:00,54.1,51.6,30.08,West,281,1.0,4.0,91,0.00,,,0.00,meteohub,2013-04-17 06:18:00,
2013-04-17 02:23:00,54.1,51.6,30.08,WNW,283,2.0,4.0,91,0.00,,,0.00,meteohub,2013-04-17 06:23:00,
2013-04-17 02:28:00,54.1,51.6,30.08,WNW,300,0.0,4.0,91,0.00,,,0.00,meteohub,2013-04-17 06:28:00,
2013-04-17 02:33:00,54.1,51.3,30.08,WNW,295,2.0,4.0,90,0.00,,,0.00,meteohub,2013-04-17 06:33:00,
2013-04-17 02:38:00,54.3,51.4,30.08,WNW,290,3.0,6.0,90,0.00,,,0.00,meteohub,2013-04-17 06:38:00,
2013-04-17 02:43:00,54.5,51.6,30.08,WNW,299,4.0,6.0,90,0.00,,,0.00,meteohub,2013-04-17 06:43:00,
2013-04-17 02:48:00,54.5,52.0,30.09,WNW,292,3.0,6.0,91,0.00,,,0.00,meteohub,2013-04-17 06:48:00,
2013-04-17 02:53:00,54.3,51.8,30.09,NW,316,3.0,6.0,91,0.00,,,0.00,meteohub,2013-04-17 06:53:00,
2013-04-17 02:58:00,54.3,51.8,30.09,WNW,302,3.0,5.0,91,0.00,,,0.00,meteohub,2013-04-17 06:58:00,
2013-04-17 03:03:00,54.3,51.8,30.07,West,275,2.0,5.0,91,0.00,,,0.00,meteohub,2013-04-17 07:03:00,
2013-04-17 03:08:00,54.3,52.0,30.08,WNW,299,1.0,6.0,92,0.00,,,0.00,meteohub,2013-04-17 07:08:00,
2013-04-17 03:14:00,54.3,52.0,30.08,WNW,282,2.0,7.0,92,0.00,,,0.00,meteohub,2013-04-17 07:14:00,
2013-04-17 03:19:00,54.1,51.8,30.08,WNW,282,1.0,7.0,92,0.00,,,0.00,meteohub,2013-04-17 07:19:00,
2013-04-17 03:23:00,54.1,51.6,30.08,WNW,282,1.0,7.0,91,0.00,,,0.00,meteohub,2013-04-17 07:23:00,
2013-04-17 03:29:00,54.1,51.3,30.08,WNW,296,3.0,5.0,90,0.00,,,0.00,meteohub,2013-04-17 07:29:00,
2013-04-17 03:34:00,54.1,50.4,30.08,WNW,286,2.0,9.0,87,0.00,,,0.00,meteohub,2013-04-17 07:34:00,
2013-04-17 03:39:00,54.1,48.7,30.07,WNW,298,4.0,9.0,82,0.00,,,0.00,meteohub,2013-04-17 07:39:00,
2013-04-17 03:44:00,54.1,48.0,30.08,West,265,8.0,9.0,80,0.00,,,0.00,meteohub,2013-04-17 07:44:00,
2013-04-17 03:49:00,54.1,47.1,30.08,WNW,286,3.0,10.0,77,0.00,,,0.00,meteohub,2013-04-17 07:49:00,
2013-04-17 03:54:00,54.1,46.8,30.08,WNW,291,2.0,10.0,76,0.00,,,0.00,meteohub,2013-04-17 07:54:00,
2013-04-17 03:59:00,54.0,45.1,30.09,WNW,292,2.0,10.0,72,0.00,,,0.00,meteohub,2013-04-17 07:59:00,
2013-04-17 04:04:00,53.8,44.2,30.09,WNW,288,4.0,5.0,70,0.00,,,0.00,meteohub,2013-04-17 08:04:00,
2013-04-17 04:09:00,53.6,44.1,30.09,West,279,6.0,6.0,70,0.00,,,0.00,meteohub,2013-04-17 08:09:00,
2013-04-17 04:14:00,53.4,44.2,30.09,WNW,300,3.0,8.0,71,0.00,,,0.00,meteohub,2013-04-17 08:14:00,
2013-04-17 04:19:00,53.2,44.1,30.09,WNW,286,4.0,8.0,71,0.00,,,0.00,meteohub,2013-04-17 08:19:00,
2013-04-17 04:24:00,53.1,43.9,30.09,WNW,290,3.0,7.0,71,0.00,,,0.00,meteohub,2013-04-17 08:24:00,
2013-04-17 04:29:00,53.1,43.9,30.10,NW,304,3.0,7.0,71,0.00,,,0.00,meteohub,2013-04-17 08:29:00,
2013-04-17 04:34:00,52.9,44.1,30.10,WNW,290,3.0,6.0,72,0.00,,,0.00,meteohub,2013-04-17 08:34:00,
2013-04-17 04:39:00,52.9,44.1,30.10,NNW,335,2.0,6.0,72,0.00,,,0.00,meteohub,2013-04-17 08:39:00,
2013-04-17 04:44:00,52.7,43.5,30.10,WNW,301,2.0,6.0,71,0.00,,,0.00,meteohub,2013-04-17 08:44:00,
2013-04-17 04:49:00,52.5,43.3,30.10,WNW,303,1.0,5.0,71,0.00,,,0.00,meteohub,2013-04-17 08:49:00,
2013-04-17 04:54:00,52.3,43.5,30.10,NW,304,0.0,5.0,72,0.00,,,0.00,meteohub,2013-04-17 08:54:00,
2013-04-17 04:59:00,52.3,43.2,30.10,NW,312,1.0,4.0,71,0.00,,,0.00,meteohub,2013-04-17 08:59:00,
2013-04-17 05:04:00,52.0,43.2,30.10,NW,312,0.0,4.0,72,0.00,,,0.00,meteohub,2013-04-17 09:04:00,
2013-04-17 05:09:00,51.8,43.3,30.10,NW,312,0.0,2.0,73,0.00,,,0.00,meteohub,2013-04-17 09:09:00,
2013-04-17 05:14:00,51.6,43.3,30.10,NNW,334,2.0,2.0,73,0.00,,,0.00,meteohub,2013-04-17 09:14:00,
2013-04-17 05:19:00,51.6,42.4,30.10,NW,316,1.0,3.0,71,0.00,,,0.00,meteohub,2013-04-17 09:19:00,
2013-04-17 05:24:00,51.6,42.4,30.10,WNW,291,2.0,3.0,71,0.00,,,0.00,meteohub,2013-04-17 09:24:00,
2013-04-17 05:29:00,51.6,42.4,30.10,NW,321,2.0,4.0,71,0.00,,,0.00,meteohub,2013-04-17 09:29:00,
2013-04-17 05:34:00,51.6,43.0,30.10,NW,309,1.0,4.0,72,0.00,,,0.00,meteohub,2013-04-17 09:34:00,
2013-04-17 05:39:00,51.4,42.8,30.11,NW,326,0.0,4.0,72,0.00,,,0.00,meteohub,2013-04-17 09:39:00,
2013-04-17 05:44:00,51.3,43.0,30.11,NNW,348,4.0,5.0,73,0.00,,,0.00,meteohub,2013-04-17 09:44:00,
2013-04-17 05:49:00,51.1,42.4,30.11,WNW,300,1.0,5.0,72,0.00,,,0.00,meteohub,2013-04-17 09:49:00,
2013-04-17 05:54:00,50.9,43.0,30.11,WNW,300,0.0,5.0,74,0.00,,,0.00,meteohub,2013-04-17 09:54:00,
2013-04-17 05:59:00,50.9,43.0,30.11,WNW,300,0.0,5.0,74,0.00,,,0.00,meteohub,2013-04-17 09:59:00,
2013-04-17 06:04:00,50.7,43.2,30.11,WNW,296,0.0,3.0,75,0.00,,,0.00,meteohub,2013-04-17 10:04:00,
2013-04-17 06:09:00,50.7,43.2,30.11,NNW,329,1.0,3.0,75,0.00,,,0.00,meteohub,2013-04-17 10:09:00,
2013-04-17 06:14:00,50.5,43.0,30.11,NW,323,1.0,3.0,75,0.00,,,0.00,meteohub,2013-04-17 10:14:00,
2013-04-17 06:19:00,50.5,43.0,30.11,NW,323,2.0,4.0,75,0.00,,,0.00,meteohub,2013-04-17 10:19:00,
2013-04-17 06:24:00,50.4,43.2,30.11,WNW,284,1.0,4.0,76,0.00,,,0.00,meteohub,2013-04-17 10:24:00,
2013-04-17 06:29:00,50.2,43.0,30.11,WNW,284,2.0,4.0,76,0.00,,,0.00,meteohub,2013-04-17 10:29:00,
2013-04-17 06:34:00,49.8,42.6,30.12,WNW,299,1.0,3.0,76,0.00,,,0.00,meteohub,2013-04-17 10:34:00,
2013-04-17 06:39:00,49.6,42.8,30.12,NW,317,3.0,3.0,77,0.00,,,0.00,meteohub,2013-04-17 10:39:00,
2013-04-17 06:44:00,49.8,42.6,30.12,NW,322,0.0,4.0,76,0.00,,,0.00,meteohub,2013-04-17 10:44:00,
2013-04-17 06:49:00,49.8,42.6,30.12,NW,322,0.0,4.0,76,0.00,,,0.00,meteohub,2013-04-17 10:49:00,
2013-04-17 06:54:00,49.6,42.8,30.12,NW,322,2.0,4.0,77,0.00,,,0.00,meteohub,2013-04-17 10:54:00,
2013-04-17 06:59:00,49.6,42.8,30.13,NW,322,1.0,3.0,77,0.00,,,0.00,meteohub,2013-04-17 10:59:00,
2013-04-17 07:04:00,49.6,42.8,30.13,NW,306,4.0,4.0,77,0.00,,,0.00,meteohub,2013-04-17 11:04:00,
2013-04-17 07:09:00,49.8,43.0,30.13,WNW,291,2.0,4.0,77,0.00,,,0.00,meteohub,2013-04-17 11:09:00,
2013-04-17 07:14:00,49.8,43.0,30.13,NW,313,0.0,4.0,77,0.00,,,0.00,meteohub,2013-04-17 11:14:00,
2013-04-17 07:19:00,50.2,43.0,30.14,NW,314,3.0,4.0,76,0.00,,,0.00,meteohub,2013-04-17 11:19:00,
2013-04-17 07:24:00,50.4,42.8,30.14,NNW,330,1.0,4.0,75,0.00,,,0.00,meteohub,2013-04-17 11:24:00,
2013-04-17 07:29:00,50.5,43.0,30.14,NNW,334,0.0,4.0,75,0.00,,,0.00,meteohub,2013-04-17 11:29:00,
2013-04-17 07:34:00,50.5,42.6,30.14,NW,315,2.0,4.0,74,0.00,,,0.00,meteohub,2013-04-17 11:34:00,
2013-04-17 07:39:00,50.7,42.4,30.14,NW,319,0.0,4.0,73,0.00,,,0.00,meteohub,2013-04-17 11:39:00,
2013-04-17 07:44:00,50.7,42.8,30.14,NW,325,3.0,4.0,74,0.00,,,0.00,meteohub,2013-04-17 11:44:00,
2013-04-17 07:49:00,50.9,42.3,30.15,NW,323,4.0,4.0,72,0.00,,,0.00,meteohub,2013-04-17 11:49:00,
2013-04-17 07:54:00,51.1,41.7,30.16,NNW,337,3.0,4.0,70,0.00,,,0.00,meteohub,2013-04-17 11:54:00,
2013-04-17 07:59:00,51.1,41.2,30.16,NW,305,0.0,5.0,69,0.00,,,0.00,meteohub,2013-04-17 11:59:00,
2013-04-17 08:04:00,51.1,40.8,30.16,WNW,303,2.0,5.0,68,0.00,,,0.00,meteohub,2013-04-17 12:04:00,
2013-04-17 08:09:00,51.3,41.4,30.16,NW,323,1.0,5.0,69,0.00,,,0.00,meteohub,2013-04-17 12:09:00,
2013-04-17 08:14:00,51.6,41.4,30.16,NW,320,4.0,8.0,68,0.00,,,0.00,meteohub,2013-04-17 12:14:00,
2013-04-17 08:19:00,51.8,40.8,30.16,NNW,327,6.0,8.0,66,0.00,,,0.00,meteohub,2013-04-17 12:19:00,
2013-04-17 08:24:00,52.2,40.8,30.16,NNW,336,0.0,6.0,65,0.00,,,0.00,meteohub,2013-04-17 12:24:00,
2013-04-17 08:30:00,52.2,40.3,30.16,North,355,3.0,7.0,64,0.00,,,0.00,meteohub,2013-04-17 12:30:00,
2013-04-17 08:35:00,52.7,40.8,30.17,WNW,294,5.0,7.0,64,0.00,,,0.00,meteohub,2013-04-17 12:35:00,
2013-04-17 08:40:00,52.5,39.9,30.17,NNW,348,2.0,6.0,62,0.00,,,0.00,meteohub,2013-04-17 12:40:00,
2013-04-17 08:45:00,52.5,39.4,30.16,WNW,298,3.0,8.0,61,0.00,,,0.00,meteohub,2013-04-17 12:45:00,
2013-04-17 08:50:00,53.1,39.9,30.17,NW,313,4.0,8.0,61,0.00,,,0.00,meteohub,2013-04-17 12:50:00,
2013-04-17 08:55:00,53.8,40.3,30.17,NW,308,4.0,8.0,60,0.00,,,0.00,meteohub,2013-04-17 12:55:00,
2013-04-17 09:00:00,53.4,39.9,30.17,WNW,300,3.0,7.0,60,0.00,,,0.00,meteohub,2013-04-17 13:00:00,
2013-04-17 09:05:00,53.8,39.4,30.16,NNW,336,3.0,8.0,58,0.00,,,0.00,meteohub,2013-04-17 13:05:00,
2013-04-17 09:10:00,53.4,39.4,30.17,WNW,303,2.0,8.0,59,0.00,,,0.00,meteohub,2013-04-17 13:10:00,
2013-04-17 09:15:00,54.1,39.7,30.17,West,269,5.0,8.0,58,0.00,,,0.00,meteohub,2013-04-17 13:15:00,
2013-04-17 09:20:00,54.5,40.1,30.17,NW,305,1.0,6.0,58,0.00,,,0.00,meteohub,2013-04-17 13:20:00,
2013-04-17 09:25:00,54.3,38.5,30.17,NNW,331,2.0,6.0,55,0.00,,,0.00,meteohub,2013-04-17 13:25:00,
2013-04-17 09:30:00,54.7,38.8,30.17,NNW,333,4.0,7.0,55,0.00,,,0.00,meteohub,2013-04-17 13:30:00,
2013-04-17 09:35:00,54.1,37.9,30.17,WNW,301,4.0,7.0,54,0.00,,,0.00,meteohub,2013-04-17 13:35:00,
2013-04-17 09:40:00,55.0,38.7,30.17,NW,315,1.0,7.0,54,0.00,,,0.00,meteohub,2013-04-17 13:40:00,
2013-04-17 09:45:00,55.9,39.0,30.18,WNW,298,2.0,7.0,53,0.00,,,0.00,meteohub,2013-04-17 13:45:00,
2013-04-17 09:50:00,57.0,39.0,30.17,WNW,296,1.0,7.0,51,0.00,,,0.00,meteohub,2013-04-17 13:50:00,
2013-04-17 09:55:00,57.7,39.7,30.18,WNW,300,1.0,6.0,51,0.00,,,0.00,meteohub,2013-04-17 13:55:00,
2013-04-17 10:00:00,56.7,38.3,30.18,NW,305,3.0,5.0,50,0.00,,,0.00,meteohub,2013-04-17 14:00:00,
2013-04-17 10:05:00,56.5,37.6,30.18,WNW,293,4.0,7.0,49,0.00,,,0.00,meteohub,2013-04-17 14:05:00,
2013-04-17 10:10:00,57.0,37.6,30.18,NW,315,2.0,7.0,48,0.00,,,0.00,meteohub,2013-04-17 14:10:00,
2013-04-17 10:15:00,57.7,37.6,30.18,NW,306,2.0,9.0,47,0.00,,,0.00,meteohub,2013-04-17 14:15:00,
2013-04-17 10:20:00,57.7,37.0,30.18,North,355,4.0,9.0,46,0.00,,,0.00,meteohub,2013-04-17 14:20:00,
2013-04-17 10:25:00,58.8,38.7,30.18,NNW,329,2.0,9.0,47,0.00,,,0.00,meteohub,2013-04-17 14:25:00,
2013-04-17 10:30:00,59.4,36.9,30.18,NNW,331,2.0,6.0,43,0.00,,,0.00,meteohub,2013-04-17 14:30:00,
2013-04-17 10:35:00,59.5,37.0,30.18,NNW,334,3.0,6.0,43,0.00,,,0.00,meteohub,2013-04-17 14:35:00,
2013-04-17 10:40:00,59.0,36.0,30.18,WNW,297,2.0,7.0,42,0.00,,,0.00,meteohub,2013-04-17 14:40:00,
2013-04-17 10:45:00,59.2,35.4,30.18,West,268,3.0,7.0,41,0.00,,,0.00,meteohub,2013-04-17 14:45:00,
2013-04-17 10:50:00,59.4,36.3,30.18,NW,320,4.0,7.0,42,0.00,,,0.00,meteohub,2013-04-17 14:50:00,
2013-04-17 10:55:00,59.4,37.4,30.18,NW,324,2.0,6.0,44,0.00,,,0.00,meteohub,2013-04-17 14:55:00,
2013-04-17 11:00:00,59.0,35.4,30.18,NW,309,3.0,7.0,41,0.00,,,0.00,meteohub,2013-04-17 15:00:00,
2013-04-17 11:05:00,60.1,35.6,30.18,WNW,296,4.0,7.0,40,0.00,,,0.00,meteohub,2013-04-17 15:05:00,
2013-04-17 11:10:00,59.7,35.4,30.18,WNW,302,4.0,8.0,40,0.00,,,0.00,meteohub,2013-04-17 15:10:00,
2013-04-17 11:15:00,59.5,35.2,30.18,West,279,6.0,8.0,40,0.00,,,0.00,meteohub,2013-04-17 15:15:00,
2013-04-17 11:20:00,59.5,34.5,30.18,West,269,7.0,10.0,39,0.00,,,0.00,meteohub,2013-04-17 15:20:00,
2013-04-17 11:25:00,61.5,35.6,30.18,North,355,0.0,10.0,38,0.00,,,0.00,meteohub,2013-04-17 15:25:00,
2013-04-17 11:30:00,61.0,34.5,30.18,WNW,292,1.0,10.0,37,0.00,,,0.00,meteohub,2013-04-17 15:30:00,
2013-04-17 11:35:00,61.0,33.8,30.18,WNW,290,2.0,9.0,36,0.00,,,0.00,meteohub,2013-04-17 15:35:00,
2013-04-17 11:40:00,60.8,32.9,30.18,West,272,2.0,9.0,35,0.00,,,0.00,meteohub,2013-04-17 15:40:00,
2013-04-17 11:45:00,60.3,32.5,30.18,NW,316,1.0,9.0,35,0.00,,,0.00,meteohub,2013-04-17 15:45:00,
2013-04-17 11:50:00,60.8,32.2,30.18,WNW,299,5.0,9.0,34,0.00,,,0.00,meteohub,2013-04-17 15:50:00,
2013-04-17 11:55:00,61.2,33.3,30.17,WNW,283,2.0,9.0,35,0.00,,,0.00,meteohub,2013-04-17 15:55:00,
2013-04-17 12:00:00,62.1,32.5,30.17,NNW,340,0.0,8.0,33,0.00,,,0.00,meteohub,2013-04-17 16:00:00,
2013-04-17 12:05:00,61.9,32.5,30.17,NW,313,4.0,6.0,33,0.00,,,0.00,meteohub,2013-04-17 16:05:00,
2013-04-17 12:10:00,62.2,32.0,30.17,WNW,294,4.0,6.0,32,0.00,,,0.00,meteohub,2013-04-17 16:10:00,
2013-04-17 12:16:00,61.5,30.6,30.17,NW,304,4.0,8.0,31,0.00,,,0.00,meteohub,2013-04-17 16:16:00,
2013-04-17 12:21:00,61.5,32.2,30.17,NNW,340,3.0,8.0,33,0.00,,,0.00,meteohub,2013-04-17 16:21:00,
2013-04-17 12:26:00,62.1,31.8,30.17,NW,311,3.0,8.0,32,0.00,,,0.00,meteohub,2013-04-17 16:26:00,
2013-04-17 12:31:00,63.0,32.7,30.17,North,11,1.0,9.0,32,0.00,,,0.00,meteohub,2013-04-17 16:31:00,
2013-04-17 12:36:00,63.7,31.6,30.17,NW,311,2.0,9.0,30,0.00,,,0.00,meteohub,2013-04-17 16:36:00,
2013-04-17 12:41:00,62.4,31.5,30.17,NW,324,2.0,9.0,31,0.00,,,0.00,meteohub,2013-04-17 16:41:00,
2013-04-17 12:46:00,62.2,30.4,30.17,WNW,299,1.0,8.0,30,0.00,,,0.00,meteohub,2013-04-17 16:46:00,
2013-04-17 12:51:00,63.7,31.6,30.16,NNW,327,0.0,8.0,30,0.00,,,0.00,meteohub,2013-04-17 16:51:00,
2013-04-17 12:56:00,63.9,31.8,30.16,WNW,302,6.0,7.0,30,0.00,,,0.00,meteohub,2013-04-17 16:56:00,
2013-04-17 13:01:00,63.3,31.3,30.16,West,267,3.0,9.0,30,0.00,,,0.00,meteohub,2013-04-17 17:01:00,
2013-04-17 13:06:00,63.5,31.5,30.16,WNW,302,1.0,9.0,30,0.00,,,0.00,meteohub,2013-04-17 17:06:00,
2013-04-17 13:11:00,64.2,31.3,30.16,WNW,302,1.0,10.0,29,0.00,,,0.00,meteohub,2013-04-17 17:11:00,
2013-04-17 13:16:00,65.1,31.3,30.16,NW,322,3.0,10.0,28,0.00,,,0.00,meteohub,2013-04-17 17:16:00,
2013-04-17 13:21:00,64.9,32.0,30.16,NW,326,0.0,7.0,29,0.00,,,0.00,meteohub,2013-04-17 17:21:00,
2013-04-17 13:26:00,65.7,32.5,30.16,North,355,3.0,8.0,29,0.00,,,0.00,meteohub,2013-04-17 17:26:00,
2013-04-17 13:31:00,66.2,32.2,30.16,NNW,333,2.0,8.0,28,0.00,,,0.00,meteohub,2013-04-17 17:31:00,
2013-04-17 13:36:00,65.7,32.5,30.16,WNW,286,4.0,5.0,29,0.00,,,0.00,meteohub,2013-04-17 17:36:00,
2013-04-17 13:41:00,65.3,31.3,30.16,NW,310,1.0,8.0,28,0.00,,,0.00,meteohub,2013-04-17 17:41:00,
2013-04-17 13:46:00,66.0,32.9,30.16,NW,314,3.0,8.0,29,0.00,,,0.00,meteohub,2013-04-17 17:46:00,
2013-04-17 13:51:00,66.4,31.5,30.16,WNW,289,1.0,6.0,27,0.00,,,0.00,meteohub,2013-04-17 17:51:00,
2013-04-17 13:56:00,65.7,30.7,30.16,West,271,2.0,6.0,27,0.00,,,0.00,meteohub,2013-04-17 17:56:00,
2013-04-17 14:02:00,65.8,30.9,30.16,NW,307,1.0,6.0,27,0.00,,,0.00,meteohub,2013-04-17 18:02:00,
2013-04-17 14:07:00,66.2,30.4,30.16,West,264,4.0,6.0,26,0.00,,,0.00,meteohub,2013-04-17 18:07:00,
2013-04-17 14:12:00,66.0,29.1,30.16,NW,309,4.0,6.0,25,0.00,,,0.00,meteohub,2013-04-17 18:12:00,
2013-04-17 14:17:00,65.7,28.9,30.15,NNW,333,1.0,7.0,25,0.00,,,0.00,meteohub,2013-04-17 18:17:00,
2013-04-17 14:22:00,66.0,30.2,30.16,NW,304,6.0,7.0,26,0.00,,,0.00,meteohub,2013-04-17 18:22:00,
2013-04-17 14:27:00,65.1,28.4,30.16,West,279,4.0,7.0,25,0.00,,,0.00,meteohub,2013-04-17 18:27:00,
2013-04-17 14:32:00,65.8,28.9,30.16,WNW,301,3.0,7.0,25,0.00,,,0.00,meteohub,2013-04-17 18:32:00,
2013-04-17 14:37:00,65.5,27.7,30.16,NW,312,4.0,9.0,24,0.00,,,0.00,meteohub,2013-04-17 18:37:00,
2013-04-17 14:42:00,65.8,28.9,30.16,NW,312,3.0,9.0,25,0.00,,,0.00,meteohub,2013-04-17 18:42:00,
2013-04-17 14:47:00,66.2,29.3,30.16,WNW,298,3.0,9.0,25,0.00,,,0.00,meteohub,2013-04-17 18:47:00,
2013-04-17 14:52:00,66.6,29.7,30.16,WNW,297,4.0,9.0,25,0.00,,,0.00,meteohub,2013-04-17 18:52:00,
2013-04-17 14:57:00,66.9,30.0,30.17,NW,307,5.0,9.0,25,0.00,,,0.00,meteohub,2013-04-17 18:57:00,
2013-04-17 15:02:00,66.9,30.0,30.17,WNW,298,5.0,7.0,25,0.00,,,0.00,meteohub,2013-04-17 19:02:00,
2013-04-17 15:07:00,66.4,29.5,30.17,NW,306,1.0,7.0,25,0.00,,,0.00,meteohub,2013-04-17 19:07:00,
2013-04-17 15:12:00,66.6,29.7,30.16,NW,308,1.0,7.0,25,0.00,,,0.00,meteohub,2013-04-17 19:12:00,
2013-04-17 15:17:00,66.6,31.5,30.16,WNW,286,3.0,6.0,27,0.00,,,0.00,meteohub,2013-04-17 19:17:00,
2013-04-17 15:22:00,67.3,30.2,30.17,WNW,290,2.0,6.0,25,0.00,,,0.00,meteohub,2013-04-17 19:22:00,
2013-04-17 15:27:00,67.3,29.3,30.17,West,272,3.0,4.0,24,0.00,,,0.00,meteohub,2013-04-17 19:27:00,
2013-04-17 15:32:00,67.3,29.3,30.17,WNW,302,1.0,5.0,24,0.00,,,0.00,meteohub,2013-04-17 19:32:00,
2013-04-17 15:37:00,68.0,29.8,30.17,NW,305,0.0,5.0,24,0.00,,,0.00,meteohub,2013-04-17 19:37:00,
2013-04-17 15:42:00,67.5,29.5,30.17,NW,323,5.0,5.0,24,0.00,,,0.00,meteohub,2013-04-17 19:42:00,
2013-04-17 15:47:00,65.7,27.9,30.17,NW,312,2.0,8.0,24,0.00,,,0.00,meteohub,2013-04-17 19:47:00,
2013-04-17 15:52:00,66.2,29.3,30.17,NW,311,4.0,8.0,25,0.00,,,0.00,meteohub,2013-04-17 19:52:00,
2013-04-17 15:57:00,66.4,28.4,30.17,NW,306,3.0,8.0,24,0.00,,,0.00,meteohub,2013-04-17 19:57:00,
2013-04-17 16:02:00,66.6,29.7,30.17,NW,323,3.0,5.0,25,0.00,,,0.00,meteohub,2013-04-17 20:02:00,
2013-04-17 16:07:00,66.2,28.4,30.17,NNW,327,4.0,6.0,24,0.00,,,0.00,meteohub,2013-04-17 20:07:00,
2013-04-17 16:12:00,65.7,28.9,30.17,WNW,286,2.0,6.0,25,0.00,,,0.00,meteohub,2013-04-17 20:12:00,
2013-04-17 16:17:00,66.6,29.7,30.17,WNW,295,3.0,8.0,25,0.00,,,0.00,meteohub,2013-04-17 20:17:00,
2013-04-17 16:22:00,67.6,29.5,30.17,NW,316,2.0,8.0,24,0.00,,,0.00,meteohub,2013-04-17 20:22:00,
2013-04-17 16:27:00,66.9,30.0,30.17,NW,324,2.0,8.0,25,0.00,,,0.00,meteohub,2013-04-17 20:27:00,
2013-04-17 16:32:00,66.7,28.8,30.17,West,266,6.0,6.0,24,0.00,,,0.00,meteohub,2013-04-17 20:32:00,
2013-04-17 16:37:00,66.9,30.0,30.17,West,261,1.0,8.0,25,0.00,,,0.00,meteohub,2013-04-17 20:37:00,
2013-04-17 16:42:00,66.9,28.9,30.17,NNW,327,3.0,8.0,24,0.00,,,0.00,meteohub,2013-04-17 20:42:00,
2013-04-17 16:47:00,66.6,28.6,30.17,WNW,298,1.0,8.0,24,0.00,,,0.00,meteohub,2013-04-17 20:47:00,
2013-04-17 16:52:00,66.6,29.7,30.17,WNW,296,2.0,8.0,25,0.00,,,0.00,meteohub,2013-04-17 20:52:00,
2013-04-17 16:57:00,66.7,29.8,30.18,NW,313,3.0,8.0,25,0.00,,,0.00,meteohub,2013-04-17 20:57:00,
2013-04-17 17:02:00,66.9,30.0,30.18,North,5,0.0,7.0,25,0.00,,,0.00,meteohub,2013-04-17 21:02:00,
2013-04-17 17:07:00,66.2,29.3,30.18,NW,306,2.0,6.0,25,0.00,,,0.00,meteohub,2013-04-17 21:07:00,
2013-04-17 17:12:00,66.2,29.3,30.19,WNW,302,4.0,6.0,25,0.00,,,0.00,meteohub,2013-04-17 21:12:00,
2013-04-17 17:17:00,66.6,28.6,30.19,West,267,0.0,6.0,24,0.00,,,0.00,meteohub,2013-04-17 21:17:00,
2013-04-17 17:22:00,65.3,27.5,30.19,West,280,3.0,6.0,24,0.00,,,0.00,meteohub,2013-04-17 21:22:00,
2013-04-17 17:27:00,65.5,28.8,30.19,NW,326,2.0,7.0,25,0.00,,,0.00,meteohub,2013-04-17 21:27:00,
2013-04-17 17:32:00,65.5,30.6,30.19,NW,318,2.0,7.0,27,0.00,,,0.00,meteohub,2013-04-17 21:32:00,
2013-04-17 17:37:00,65.5,29.7,30.19,WNW,293,3.0,7.0,26,0.00,,,0.00,meteohub,2013-04-17 21:37:00,
2013-04-17 17:42:00,65.7,30.7,30.19,WNW,299,1.0,5.0,27,0.00,,,0.00,meteohub,2013-04-17 21:42:00,
2013-04-17 17:47:00,65.5,29.7,30.19,WNW,289,3.0,5.0,26,0.00,,,0.00,meteohub,2013-04-17 21:47:00,
2013-04-17 17:52:00,64.8,30.0,30.20,NW,309,3.0,6.0,27,0.00,,,0.00,meteohub,2013-04-17 21:52:00,
2013-04-17 17:57:00,64.2,30.4,30.20,WNW,292,4.0,6.0,28,0.00,,,0.00,meteohub,2013-04-17 21:57:00,
2013-04-17 18:02:00,64.6,30.7,30.20,NW,305,2.0,6.0,28,0.00,,,0.00,meteohub,2013-04-17 22:02:00,
2013-04-17 18:07:00,64.6,28.9,30.20,NNW,337,4.0,5.0,26,0.00,,,0.00,meteohub,2013-04-17 22:07:00,
2013-04-17 18:12:00,64.0,28.4,30.21,NW,322,3.0,6.0,26,0.00,,,0.00,meteohub,2013-04-17 22:12:00,
2013-04-17 18:17:00,63.5,28.9,30.21,NNW,333,3.0,6.0,27,0.00,,,0.00,meteohub,2013-04-17 22:17:00,
2013-04-17 18:22:00,63.1,28.6,30.21,NW,324,3.0,5.0,27,0.00,,,0.00,meteohub,2013-04-17 22:22:00,
2013-04-17 18:27:00,62.8,29.1,30.22,NW,323,3.0,5.0,28,0.00,,,0.00,meteohub,2013-04-17 22:27:00,
2013-04-17 18:32:00,62.4,28.9,30.22,NNW,333,2.0,5.0,28,0.00,,,0.00,meteohub,2013-04-17 22:32:00,
2013-04-17 18:37:00,62.1,29.5,30.22,NW,305,3.0,5.0,29,0.00,,,0.00,meteohub,2013-04-17 22:37:00,
2013-04-17 18:42:00,62.1,29.5,30.22,NW,323,1.0,5.0,29,0.00,,,0.00,meteohub,2013-04-17 22:42:00,
2013-04-17 18:47:00,62.1,29.5,30.22,WNW,290,1.0,4.0,29,0.00,,,0.00,meteohub,2013-04-17 22:47:00,
2013-04-17 18:52:00,62.1,30.2,30.22,NW,306,2.0,4.0,30,0.00,,,0.00,meteohub,2013-04-17 22:52:00,
2013-04-17 18:57:00,61.9,29.3,30.22,NW,306,1.0,4.0,29,0.00,,,0.00,meteohub,2013-04-17 22:57:00,
2013-04-17 19:02:00,61.5,29.8,30.23,NW,311,2.0,3.0,30,0.00,,,0.00,meteohub,2013-04-17 23:02:00,
2013-04-17 19:07:00,61.5,30.6,30.23,NW,311,0.0,3.0,31,0.00,,,0.00,meteohub,2013-04-17 23:07:00,
2013-04-17 19:12:00,61.3,28.8,30.23,NW,311,2.0,3.0,29,0.00,,,0.00,meteohub,2013-04-17 23:12:00,
2013-04-17 19:17:00,61.0,29.3,30.23,NNW,328,1.0,3.0,30,0.00,,,0.00,meteohub,2013-04-17 23:17:00,
2013-04-17 19:22:00,60.6,30.6,30.23,NW,322,1.0,3.0,32,0.00,,,0.00,meteohub,2013-04-17 23:22:00,
2013-04-17 19:27:00,60.3,31.1,30.23,NNW,331,0.0,3.0,33,0.00,,,0.00,meteohub,2013-04-17 23:27:00,
2013-04-17 19:32:00,59.5,33.3,30.24,NNW,331,0.0,3.0,37,0.00,,,0.00,meteohub,2013-04-17 23:32:00,
2013-04-17 19:37:00,59.2,30.0,30.24,NW,323,2.0,3.0,33,0.00,,,0.00,meteohub,2013-04-17 23:37:00,
2013-04-17 19:42:00,58.8,31.3,30.24,NW,323,0.0,3.0,35,0.00,,,0.00,meteohub,2013-04-17 23:42:00,
2013-04-17 19:47:00,58.5,30.2,30.24,NW,323,0.0,3.0,34,0.00,,,0.00,meteohub,2013-04-17 23:47:00,
2013-04-17 19:52:00,57.9,31.8,30.24,NW,323,0.0,3.0,37,0.00,,,0.00,meteohub,2013-04-17 23:52:00,
2013-04-17 19:57:00,57.6,31.5,30.25,NW,323,0.0,2.0,37,0.00,,,0.00,meteohub,2013-04-17 23:57:00,
2013-04-17 20:02:00,57.4,30.6,30.25,NW,323,0.0,2.0,36,0.00,,,0.00,meteohub,2013-04-18 00:02:00,
2013-04-17 20:07:00,56.8,30.2,30.25,NW,323,0.0,1.0,36,0.00,,,0.00,meteohub,2013-04-18 00:07:00,
2013-04-17 20:12:00,56.7,30.0,30.26,NW,323,0.0,2.0,36,0.00,,,0.00,meteohub,2013-04-18 00:12:00,
2013-04-17 20:17:00,56.7,30.0,30.26,NW,323,0.0,2.0,36,0.00,,,0.00,meteohub,2013-04-18 00:17:00,
2013-04-17 20:22:00,56.5,29.8,30.27,NW,323,0.0,2.0,36,0.00,,,0.00,meteohub,2013-04-18 00:22:00,
2013-04-17 20:27:00,56.3,30.4,30.27,NW,323,0.0,2.0,37,0.00,,,0.00,meteohub,2013-04-18 00:27:00,
2013-04-17 20:32:00,55.9,30.0,30.27,NW,323,0.0,2.0,37,0.00,,,0.00,meteohub,2013-04-18 00:32:00,
2013-04-17 20:37:00,55.4,29.5,30.27,NW,323,0.0,2.0,37,0.00,,,0.00,meteohub,2013-04-18 00:37:00,
2013-04-17 20:42:00,55.0,29.3,30.27,NW,323,0.0,0.0,37,0.00,,,0.00,meteohub,2013-04-18 00:42:00,
2013-04-17 20:47:00,54.7,29.5,30.27,NW,323,0.0,0.0,38,0.00,,,0.00,meteohub,2013-04-18 00:47:00,
2013-04-17 20:52:00,54.3,29.8,30.27,NW,323,0.0,0.0,39,0.00,,,0.00,meteohub,2013-04-18 00:52:00,
2013-04-17 20:57:00,54.1,30.4,30.27,NW,323,0.0,0.0,40,0.00,,,0.00,meteohub,2013-04-18 00:57:00,
2013-04-17 21:02:00,54.0,29.5,30.28,NW,323,0.0,0.0,39,0.00,,,0.00,meteohub,2013-04-18 01:02:00,
2013-04-17 21:07:00,53.6,30.4,30.28,NW,323,0.0,0.0,41,0.00,,,0.00,meteohub,2013-04-18 01:07:00,
2013-04-17 21:12:00,53.1,30.6,30.27,NW,323,0.0,0.0,42,0.00,,,0.00,meteohub,2013-04-18 01:12:00,
2013-04-17 21:17:00,52.9,30.4,30.27,NW,323,0.0,0.0,42,0.00,,,0.00,meteohub,2013-04-18 01:17:00,
2013-04-17 21:22:00,52.9,30.4,30.28,NW,323,0.0,0.0,42,0.00,,,0.00,meteohub,2013-04-18 01:22:00,
2013-04-17 21:27:00,52.9,29.8,30.28,NW,323,0.0,1.0,41,0.00,,,0.00,meteohub,2013-04-18 01:27:00,
2013-04-17 21:32:00,52.9,29.8,30.28,NW,323,0.0,1.0,41,0.00,,,0.00,meteohub,2013-04-18 01:32:00,
2013-04-17 21:37:00,52.9,30.4,30.29,NW,323,0.0,1.0,42,0.00,,,0.00,meteohub,2013-04-18 01:37:00,
2013-04-17 21:42:00,52.5,29.5,30.29,NW,323,0.0,0.0,41,0.00,,,0.00,meteohub,2013-04-18 01:42:00,
2013-04-17 21:47:00,52.3,29.8,30.29,NW,323,0.0,0.0,42,0.00,,,0.00,meteohub,2013-04-18 01:47:00,
2013-04-17 21:52:00,52.0,30.2,30.29,NW,323,0.0,0.0,43,0.00,,,0.00,meteohub,2013-04-18 01:52:00,
2013-04-17 21:57:00,51.4,30.7,30.29,NW,323,0.0,0.0,45,0.00,,,0.00,meteohub,2013-04-18 01:57:00,
2013-04-17 22:02:00,51.1,31.6,30.30,NW,323,0.0,0.0,47,0.00,,,0.00,meteohub,2013-04-18 02:02:00,
2013-04-17 22:08:00,50.5,30.6,30.30,NW,323,0.0,0.0,46,0.00,,,0.00,meteohub,2013-04-18 02:08:00,
2013-04-17 22:13:00,50.5,30.0,30.29,NW,323,0.0,0.0,45,0.00,,,0.00,meteohub,2013-04-18 02:13:00,
2013-04-17 22:18:00,50.0,31.1,30.30,NW,323,0.0,0.0,48,0.00,,,0.00,meteohub,2013-04-18 02:18:00,
2013-04-17 22:23:00,49.5,31.1,30.30,NW,323,0.0,0.0,49,0.00,,,0.00,meteohub,2013-04-18 02:23:00,
2013-04-17 22:28:00,49.5,30.6,30.30,NW,323,0.0,0.0,48,0.00,,,0.00,meteohub,2013-04-18 02:28:00,
2013-04-17 22:33:00,49.1,31.3,30.30,NW,323,0.0,0.0,50,0.00,,,0.00,meteohub,2013-04-18 02:33:00,
2013-04-17 22:38:00,48.7,31.5,30.30,NW,323,0.0,0.0,51,0.00,,,0.00,meteohub,2013-04-18 02:38:00,
2013-04-17 22:43:00,48.6,30.7,30.30,NW,323,3.0,0.0,50,0.00,,,0.00,meteohub,2013-04-18 02:43:00,
2013-04-17 22:48:00,48.4,31.6,30.31,NW,323,0.0,3.0,52,0.00,,,0.00,meteohub,2013-04-18 02:48:00,
2013-04-17 22:53:00,48.2,31.5,30.31,NW,323,0.0,3.0,52,0.00,,,0.00,meteohub,2013-04-18 02:53:00,
2013-04-17 22:58:00,47.8,30.6,30.30,NW,323,0.0,3.0,51,0.00,,,0.00,meteohub,2013-04-18 02:58:00,
2013-04-17 23:03:00,48.0,31.3,30.31,NW,323,0.0,0.0,52,0.00,,,0.00,meteohub,2013-04-18 03:03:00,
2013-04-17 23:08:00,47.7,31.3,30.30,NW,323,0.0,0.0,53,0.00,,,0.00,meteohub,2013-04-18 03:08:00,
2013-04-17 23:13:00,47.5,30.7,30.30,NW,323,0.0,0.0,52,0.00,,,0.00,meteohub,2013-04-18 03:13:00,
2013-04-17 23:18:00,47.3,32.0,30.29,NW,323,0.0,0.0,55,0.00,,,0.00,meteohub,2013-04-18 03:18:00,
2013-04-17 23:23:00,46.8,31.8,30.30,NW,323,0.0,1.0,56,0.00,,,0.00,meteohub,2013-04-18 03:23:00,
2013-04-17 23:28:00,46.8,31.5,30.30,NW,323,0.0,1.0,55,0.00,,,0.00,meteohub,2013-04-18 03:28:00,
2013-04-17 23:33:00,46.9,30.2,30.30,NW,323,0.0,1.0,52,0.00,,,0.00,meteohub,2013-04-18 03:33:00,
2013-04-17 23:38:00,47.3,30.0,30.30,NW,323,0.0,0.0,51,0.00,,,0.00,meteohub,2013-04-18 03:38:00,
2013-04-17 23:43:00,47.3,29.7,30.31,NW,323,0.0,0.0,50,0.00,,,0.00,meteohub,2013-04-18 03:43:00,
2013-04-17 23:48:00,47.1,29.5,30.32,NW,323,0.0,0.0,50,0.00,,,0.00,meteohub,2013-04-18 03:48:00,
2013-04-17 23:53:00,46.9,29.8,30.32,NW,323,0.0,0.0,51,0.00,,,0.00,meteohub,2013-04-18 03:53:00,
2013-04-17 23:58:00,46.2,29.5,30.32,NW,323,0.0,0.0,52,0.00,,,0.00,meteohub,2013-04-18 03:58:00,